sensor_id;sensor_type;location;lat;lon;timestamp;P1;durP1;ratioP1;P2;durP2;ratioP2
26780;SDS011;14366;49.184;8.054;2023-12-14T00:03:35;5.03;;;3.17;;
26780;SDS011;14366;49.184;8.054;2023-12-14T00:09:12;8.80;;;3.73;;
26780;SDS011;14366;49.184;8.054;2023-12-14T00:14:46;8.80;;;3.90;;
26780;SDS011;14366;49.184;8.054;2023-12-14T00:20:07;6.83;;;4.17;;
26780;SDS011;14366;49.184;8.054;2023-12-14T00:25:30;7.03;;;3.73;;
26780;SDS011;14366;49.184;8.054;2023-12-14T00:31:03;7.90;;;4.65;;
26780;SDS011;14366;49.184;8.054;2023-12-14T00:36:21;6.10;;;4.13;;
26780;SDS011;14366;49.184;8.054;2023-12-14T00:41:43;5.23;;;3.47;;
26780;SDS011;14366;49.184;8.054;2023-12-14T00:47:18;5.05;;;3.50;;
26780;SDS011;14366;49.184;8.054;2023-12-14T00:52:38;3.87;;;3.40;;
26780;SDS011;14366;49.184;8.054;2023-12-14T00:58:00;7.87;;;3.33;;
26780;SDS011;14366;49.184;8.054;2023-12-14T01:03:32;5.03;;;3.13;;
26780;SDS011;14366;49.184;8.054;2023-12-14T01:08:53;7.40;;;4.77;;
26780;SDS011;14366;49.184;8.054;2023-12-14T01:14:14;5.70;;;4.50;;
26780;SDS011;14366;49.184;8.054;2023-12-14T01:19:47;6.40;;;4.07;;
26780;SDS011;14366;49.184;8.054;2023-12-14T01:25:22;6.80;;;4.40;;
26780;SDS011;14366;49.184;8.054;2023-12-14T01:30:44;6.20;;;3.85;;
26780;SDS011;14366;49.184;8.054;2023-12-14T01:36:21;7.33;;;4.17;;
26780;SDS011;14366;49.184;8.054;2023-12-14T01:41:57;8.20;;;4.20;;
26780;SDS011;14366;49.184;8.054;2023-12-14T01:47:19;5.30;;;3.70;;
26780;SDS011;14366;49.184;8.054;2023-12-14T01:52:50;11.03;;;4.00;;
26780;SDS011;14366;49.184;8.054;2023-12-14T01:58:11;5.90;;;3.90;;
26780;SDS011;14366;49.184;8.054;2023-12-14T02:03:33;7.25;;;4.35;;
26780;SDS011;14366;49.184;8.054;2023-12-14T02:09:08;8.20;;;4.30;;
26780;SDS011;14366;49.184;8.054;2023-12-14T02:14:43;5.50;;;3.93;;
26780;SDS011;14366;49.184;8.054;2023-12-14T02:20:19;6.40;;;4.30;;
26780;SDS011;14366;49.184;8.054;2023-12-14T02:25:55;7.25;;;4.70;;
26780;SDS011;14366;49.184;8.054;2023-12-14T02:31:30;7.30;;;5.40;;
26780;SDS011;14366;49.184;8.054;2023-12-14T02:36:51;11.97;;;5.03;;
26780;SDS011;14366;49.184;8.054;2023-12-14T02:42:13;6.47;;;4.50;;
26780;SDS011;14366;49.184;8.054;2023-12-14T02:47:48;9.00;;;5.10;;
26780;SDS011;14366;49.184;8.054;2023-12-14T02:53:09;8.55;;;5.55;;
26780;SDS011;14366;49.184;8.054;2023-12-14T02:58:45;8.77;;;5.67;;
26780;SDS011;14366;49.184;8.054;2023-12-14T03:04:20;8.10;;;6.10;;
26780;SDS011;14366;49.184;8.054;2023-12-14T03:09:55;8.45;;;6.15;;
26780;SDS011;14366;49.184;8.054;2023-12-14T03:15:17;15.60;;;10.05;;
26780;SDS011;14366;49.184;8.054;2023-12-14T03:20:52;10.70;;;8.10;;
26780;SDS011;14366;49.184;8.054;2023-12-14T03:26:27;9.45;;;7.25;;
26780;SDS011;14366;49.184;8.054;2023-12-14T03:32:05;10.35;;;7.75;;
26780;SDS011;14366;49.184;8.054;2023-12-14T03:37:37;12.13;;;8.03;;
26780;SDS011;14366;49.184;8.054;2023-12-14T03:43:12;10.53;;;7.47;;
26780;SDS011;14366;49.184;8.054;2023-12-14T03:48:33;11.00;;;8.13;;
26780;SDS011;14366;49.184;8.054;2023-12-14T03:54:06;12.55;;;8.93;;
26780;SDS011;14366;49.184;8.054;2023-12-14T03:59:26;11.90;;;7.20;;
26780;SDS011;14366;49.184;8.054;2023-12-14T04:04:47;10.55;;;6.50;;
26780;SDS011;14366;49.184;8.054;2023-12-14T04:10:20;8.40;;;6.40;;
26780;SDS011;14366;49.184;8.054;2023-12-14T04:15:41;8.25;;;6.10;;
26780;SDS011;14366;49.184;8.054;2023-12-14T04:21:04;9.30;;;6.37;;
26780;SDS011;14366;49.184;8.054;2023-12-14T04:26:39;7.37;;;5.70;;
26780;SDS011;14366;49.184;8.054;2023-12-14T04:31:56;8.60;;;5.70;;
26780;SDS011;14366;49.184;8.054;2023-12-14T04:37:19;6.13;;;5.03;;
26780;SDS011;14366;49.184;8.054;2023-12-14T04:42:53;6.80;;;4.95;;
26780;SDS011;14366;49.184;8.054;2023-12-14T04:48:28;8.70;;;5.15;;
26780;SDS011;14366;49.184;8.054;2023-12-14T04:54:05;8.80;;;5.60;;
26780;SDS011;14366;49.184;8.054;2023-12-14T04:59:40;9.45;;;5.55;;
26780;SDS011;14366;49.184;8.054;2023-12-14T05:05:15;7.20;;;4.90;;
26780;SDS011;14366;49.184;8.054;2023-12-14T05:10:48;9.20;;;5.10;;
26780;SDS011;14366;49.184;8.054;2023-12-14T05:16:22;5.93;;;4.90;;
26780;SDS011;14366;49.184;8.054;2023-12-14T05:21:57;7.77;;;5.30;;
26780;SDS011;14366;49.184;8.054;2023-12-14T05:27:20;6.63;;;4.87;;
26780;SDS011;14366;49.184;8.054;2023-12-14T05:32:54;5.32;;;4.32;;
26780;SDS011;14366;49.184;8.054;2023-12-14T05:38:15;8.10;;;4.60;;
26780;SDS011;14366;49.184;8.054;2023-12-14T05:43:52;6.10;;;4.23;;
26780;SDS011;14366;49.184;8.054;2023-12-14T05:49:26;6.67;;;4.33;;
26780;SDS011;14366;49.184;8.054;2023-12-14T05:54:47;5.17;;;3.80;;
26780;SDS011;14366;49.184;8.054;2023-12-14T06:00:10;4.70;;;3.80;;
26780;SDS011;14366;49.184;8.054;2023-12-14T06:05:45;4.97;;;3.90;;
26780;SDS011;14366;49.184;8.054;2023-12-14T06:11:06;8.53;;;4.33;;
26780;SDS011;14366;49.184;8.054;2023-12-14T06:16:43;5.97;;;4.27;;
26780;SDS011;14366;49.184;8.054;2023-12-14T06:22:15;7.77;;;5.40;;
26780;SDS011;14366;49.184;8.054;2023-12-14T06:27:48;6.93;;;5.60;;
26780;SDS011;14366;49.184;8.054;2023-12-14T06:33:11;9.37;;;5.63;;
26780;SDS011;14366;49.184;8.054;2023-12-14T06:38:45;6.87;;;5.03;;
26780;SDS011;14366;49.184;8.054;2023-12-14T06:44:06;7.45;;;4.20;;
26780;SDS011;14366;49.184;8.054;2023-12-14T06:49:29;4.63;;;4.13;;
26780;SDS011;14366;49.184;8.054;2023-12-14T06:55:02;6.60;;;4.70;;
26780;SDS011;14366;49.184;8.054;2023-12-14T07:00:37;5.30;;;4.40;;
26780;SDS011;14366;49.184;8.054;2023-12-14T07:06:11;11.70;;;6.60;;
26780;SDS011;14366;49.184;8.054;2023-12-14T07:11:42;12.87;;;6.63;;
26780;SDS011;14366;49.184;8.054;2023-12-14T07:17:02;20.07;;;14.97;;
26780;SDS011;14366;49.184;8.054;2023-12-14T07:22:24;10.30;;;7.70;;
26780;SDS011;14366;49.184;8.054;2023-12-14T07:27:59;11.07;;;7.70;;
26780;SDS011;14366;49.184;8.054;2023-12-14T07:33:20;8.83;;;6.90;;
26780;SDS011;14366;49.184;8.054;2023-12-14T07:38:57;7.20;;;5.40;;
26780;SDS011;14366;49.184;8.054;2023-12-14T07:44:32;8.33;;;5.00;;
26780;SDS011;14366;49.184;8.054;2023-12-14T07:50:07;8.82;;;4.62;;
26780;SDS011;14366;49.184;8.054;2023-12-14T07:55:43;5.05;;;3.80;;
26780;SDS011;14366;49.184;8.054;2023-12-14T08:01:16;5.07;;;3.80;;
26780;SDS011;14366;49.184;8.054;2023-12-14T08:06:51;6.80;;;4.60;;
26780;SDS011;14366;49.184;8.054;2023-12-14T08:12:27;7.50;;;4.33;;
26780;SDS011;14366;49.184;8.054;2023-12-14T08:18:00;7.17;;;4.13;;
26780;SDS011;14366;49.184;8.054;2023-12-14T08:23:20;8.25;;;3.90;;
26780;SDS011;14366;49.184;8.054;2023-12-14T08:28:53;9.60;;;3.70;;
26780;SDS011;14366;49.184;8.054;2023-12-14T08:34:28;5.25;;;3.40;;
26780;SDS011;14366;49.184;8.054;2023-12-14T08:39:49;5.20;;;3.50;;
26780;SDS011;14366;49.184;8.054;2023-12-14T08:45:11;5.47;;;3.57;;
26780;SDS011;14366;49.184;8.054;2023-12-14T08:50:46;3.70;;;3.20;;
26780;SDS011;14366;49.184;8.054;2023-12-14T08:56:18;6.00;;;3.37;;
26780;SDS011;14366;49.184;8.054;2023-12-14T09:01:54;4.53;;;3.50;;
26780;SDS011;14366;49.184;8.054;2023-12-14T09:07:29;5.37;;;4.63;;
26780;SDS011;14366;49.184;8.054;2023-12-14T09:13:04;7.00;;;4.50;;
26780;SDS011;14366;49.184;8.054;2023-12-14T09:18:40;6.65;;;4.55;;
26780;SDS011;14366;49.184;8.054;2023-12-14T09:24:15;6.30;;;4.13;;
26780;SDS011;14366;49.184;8.054;2023-12-14T09:29:50;12.30;;;6.70;;
26780;SDS011;14366;49.184;8.054;2023-12-14T09:35:12;7.93;;;5.80;;
26780;SDS011;14366;49.184;8.054;2023-12-14T09:40:48;5.80;;;4.80;;
26780;SDS011;14366;49.184;8.054;2023-12-14T09:46:09;8.70;;;5.30;;
26780;SDS011;14366;49.184;8.054;2023-12-14T09:51:45;8.00;;;5.00;;
26780;SDS011;14366;49.184;8.054;2023-12-14T09:57:18;7.20;;;5.00;;
26780;SDS011;14366;49.184;8.054;2023-12-14T10:02:53;7.60;;;5.00;;
26780;SDS011;14366;49.184;8.054;2023-12-14T10:08:29;7.80;;;5.10;;
26780;SDS011;14366;49.184;8.054;2023-12-14T10:14:17;7.07;;;5.67;;
26780;SDS011;14366;49.184;8.054;2023-12-14T10:19:42;9.40;;;6.80;;
26780;SDS011;14366;49.184;8.054;2023-12-14T10:25:19;7.60;;;5.20;;
26780;SDS011;14366;49.184;8.054;2023-12-14T10:30:51;7.20;;;5.77;;
26780;SDS011;14366;49.184;8.054;2023-12-14T10:36:24;8.43;;;5.78;;
26780;SDS011;14366;49.184;8.054;2023-12-14T10:41:59;6.00;;;5.00;;
26780;SDS011;14366;49.184;8.054;2023-12-14T10:47:35;7.60;;;4.80;;
26780;SDS011;14366;49.184;8.054;2023-12-14T10:53:07;8.05;;;4.40;;
26780;SDS011;14366;49.184;8.054;2023-12-14T11:03:46;6.10;;;4.50;;
26780;SDS011;14366;49.184;8.054;2023-12-14T11:09:17;4.40;;;3.60;;
26780;SDS011;14366;49.184;8.054;2023-12-14T11:14:51;4.20;;;3.80;;
26780;SDS011;14366;49.184;8.054;2023-12-14T11:20:27;5.37;;;3.70;;
26780;SDS011;14366;49.184;8.054;2023-12-14T11:26:00;6.18;;;4.25;;
26780;SDS011;14366;49.184;8.054;2023-12-14T11:31:34;6.50;;;3.55;;
26780;SDS011;14366;49.184;8.054;2023-12-14T11:37:11;5.70;;;3.70;;
26780;SDS011;14366;49.184;8.054;2023-12-14T11:42:45;4.60;;;4.00;;
26780;SDS011;14366;49.184;8.054;2023-12-14T11:48:06;6.53;;;3.70;;
26780;SDS011;14366;49.184;8.054;2023-12-14T11:53:43;4.53;;;3.60;;
26780;SDS011;14366;49.184;8.054;2023-12-14T11:59:18;6.00;;;3.83;;
26780;SDS011;14366;49.184;8.054;2023-12-14T12:04:52;4.27;;;3.60;;
26780;SDS011;14366;49.184;8.054;2023-12-14T12:10:29;5.25;;;4.10;;
26780;SDS011;14366;49.184;8.054;2023-12-14T12:16:04;5.30;;;3.60;;
26780;SDS011;14366;49.184;8.054;2023-12-14T12:21:23;4.50;;;3.70;;
26780;SDS011;14366;49.184;8.054;2023-12-14T12:26:46;4.43;;;3.47;;
26780;SDS011;14366;49.184;8.054;2023-12-14T12:32:20;4.05;;;3.65;;
26780;SDS011;14366;49.184;8.054;2023-12-14T12:37:41;4.00;;;3.30;;
26780;SDS011;14366;49.184;8.054;2023-12-14T12:43:18;4.37;;;3.00;;
26780;SDS011;14366;49.184;8.054;2023-12-14T12:48:49;6.05;;;4.15;;
26780;SDS011;14366;49.184;8.054;2023-12-14T12:54:24;3.40;;;3.03;;
26780;SDS011;14366;49.184;8.054;2023-12-14T13:00:01;9.87;;;7.10;;
26780;SDS011;14366;49.184;8.054;2023-12-14T13:05:33;3.70;;;3.03;;
26780;SDS011;14366;49.184;8.054;2023-12-14T13:11:08;4.15;;;2.90;;
26780;SDS011;14366;49.184;8.054;2023-12-14T13:16:45;4.20;;;2.60;;
26780;SDS011;14366;49.184;8.054;2023-12-14T13:22:18;2.90;;;2.60;;
26780;SDS011;14366;49.184;8.054;2023-12-14T13:27:36;4.53;;;2.73;;
26780;SDS011;14366;49.184;8.054;2023-12-14T13:33:10;2.60;;;2.20;;
26780;SDS011;14366;49.184;8.054;2023-12-14T13:38:45;4.05;;;2.95;;
26780;SDS011;14366;49.184;8.054;2023-12-14T13:44:20;4.00;;;2.85;;
26780;SDS011;14366;49.184;8.054;2023-12-14T13:49:41;3.25;;;2.95;;
26780;SDS011;14366;49.184;8.054;2023-12-14T13:55:16;3.60;;;3.00;;
26780;SDS011;14366;49.184;8.054;2023-12-14T14:00:36;3.70;;;3.10;;
26780;SDS011;14366;49.184;8.054;2023-12-14T14:06:12;4.28;;;3.28;;
26780;SDS011;14366;49.184;8.054;2023-12-14T14:11:45;5.10;;;3.50;;
26780;SDS011;14366;49.184;8.054;2023-12-14T14:17:05;4.80;;;3.80;;
26780;SDS011;14366;49.184;8.054;2023-12-14T14:22:24;4.80;;;3.25;;
26780;SDS011;14366;49.184;8.054;2023-12-14T14:27:59;4.90;;;3.70;;
26780;SDS011;14366;49.184;8.054;2023-12-14T14:33:34;6.07;;;3.95;;
26780;SDS011;14366;49.184;8.054;2023-12-14T14:38:55;5.45;;;3.60;;
26780;SDS011;14366;49.184;8.054;2023-12-14T14:44:32;6.55;;;3.35;;
26780;SDS011;14366;49.184;8.054;2023-12-14T14:49:53;4.77;;;3.57;;
26780;SDS011;14366;49.184;8.054;2023-12-14T14:55:30;4.80;;;3.25;;
26780;SDS011;14366;49.184;8.054;2023-12-14T15:01:05;3.70;;;3.03;;
26780;SDS011;14366;49.184;8.054;2023-12-14T15:06:26;5.30;;;3.70;;
26780;SDS011;14366;49.184;8.054;2023-12-14T15:11:59;4.85;;;3.25;;
26780;SDS011;14366;49.184;8.054;2023-12-14T15:17:36;4.23;;;3.47;;
26780;SDS011;14366;49.184;8.054;2023-12-14T15:23:11;5.45;;;3.40;;
26780;SDS011;14366;49.184;8.054;2023-12-14T15:28:44;4.25;;;3.50;;
26780;SDS011;14366;49.184;8.054;2023-12-14T15:34:21;6.47;;;3.97;;
26780;SDS011;14366;49.184;8.054;2023-12-14T15:39:42;4.20;;;3.10;;
26780;SDS011;14366;49.184;8.054;2023-12-14T15:45:19;2.75;;;1.90;;
26780;SDS011;14366;49.184;8.054;2023-12-14T15:50:54;2.45;;;1.40;;
26780;SDS011;14366;49.184;8.054;2023-12-14T15:56:14;1.60;;;1.50;;
26780;SDS011;14366;49.184;8.054;2023-12-14T16:01:36;1.40;;;1.30;;
26780;SDS011;14366;49.184;8.054;2023-12-14T16:07:12;2.40;;;1.85;;
26780;SDS011;14366;49.184;8.054;2023-12-14T16:12:32;4.50;;;1.25;;
26780;SDS011;14366;49.184;8.054;2023-12-14T16:17:54;1.90;;;1.20;;
26780;SDS011;14366;49.184;8.054;2023-12-14T16:23:29;1.97;;;1.40;;
26780;SDS011;14366;49.184;8.054;2023-12-14T16:28:50;1.85;;;1.40;;
26780;SDS011;14366;49.184;8.054;2023-12-14T16:34:26;2.00;;;1.73;;
26780;SDS011;14366;49.184;8.054;2023-12-14T16:40:02;2.00;;;1.80;;
26780;SDS011;14366;49.184;8.054;2023-12-14T16:45:23;2.00;;;1.80;;
26780;SDS011;14366;49.184;8.054;2023-12-14T16:50:45;2.60;;;1.60;;
26780;SDS011;14366;49.184;8.054;2023-12-14T16:56:21;6.30;;;4.80;;
26780;SDS011;14366;49.184;8.054;2023-12-14T17:01:57;4.00;;;3.23;;
26780;SDS011;14366;49.184;8.054;2023-12-14T17:07:18;3.40;;;2.60;;
26780;SDS011;14366;49.184;8.054;2023-12-14T17:12:54;3.20;;;2.90;;
26780;SDS011;14366;49.184;8.054;2023-12-14T17:18:14;8.00;;;5.65;;
26780;SDS011;14366;49.184;8.054;2023-12-14T17:23:51;15.53;;;11.57;;
26780;SDS011;14366;49.184;8.054;2023-12-14T17:29:26;13.33;;;8.77;;
26780;SDS011;14366;49.184;8.054;2023-12-14T17:35:01;11.07;;;7.77;;
26780;SDS011;14366;49.184;8.054;2023-12-14T17:40:24;9.00;;;6.75;;
26780;SDS011;14366;49.184;8.054;2023-12-14T17:45:55;4.63;;;3.53;;
26780;SDS011;14366;49.184;8.054;2023-12-14T17:56:34;2.50;;;2.00;;
26780;SDS011;14366;49.184;8.054;2023-12-14T18:02:10;2.95;;;2.05;;
26780;SDS011;14366;49.184;8.054;2023-12-14T18:07:46;2.00;;;1.70;;
26780;SDS011;14366;49.184;8.054;2023-12-14T18:13:05;1.60;;;1.50;;
26780;SDS011;14366;49.184;8.054;2023-12-14T18:18:40;1.80;;;1.70;;
26780;SDS011;14366;49.184;8.054;2023-12-14T18:23:57;4.25;;;1.60;;
26780;SDS011;14366;49.184;8.054;2023-12-14T18:34:24;1.35;;;1.20;;
26780;SDS011;14366;49.184;8.054;2023-12-14T18:39:58;1.30;;;1.20;;
26780;SDS011;14366;49.184;8.054;2023-12-14T18:45:31;1.50;;;1.30;;
26780;SDS011;14366;49.184;8.054;2023-12-14T18:51:08;1.50;;;1.00;;
26780;SDS011;14366;49.184;8.054;2023-12-14T18:56:42;3.25;;;1.40;;
26780;SDS011;14366;49.184;8.054;2023-12-14T19:02:03;1.50;;;1.20;;
26780;SDS011;14366;49.184;8.054;2023-12-14T19:07:39;1.50;;;1.30;;
26780;SDS011;14366;49.184;8.054;2023-12-14T19:13:13;2.45;;;1.30;;
26780;SDS011;14366;49.184;8.054;2023-12-14T19:18:48;2.40;;;1.40;;
26780;SDS011;14366;49.184;8.054;2023-12-14T19:24:24;1.93;;;1.63;;
26780;SDS011;14366;49.184;8.054;2023-12-14T19:29:56;1.80;;;1.60;;
26780;SDS011;14366;49.184;8.054;2023-12-14T19:35:32;1.90;;;1.70;;
26780;SDS011;14366;49.184;8.054;2023-12-14T19:40:54;2.47;;;2.10;;
26780;SDS011;14366;49.184;8.054;2023-12-14T19:46:28;2.37;;;1.90;;
26780;SDS011;14366;49.184;8.054;2023-12-14T19:51:48;2.95;;;2.40;;
26780;SDS011;14366;49.184;8.054;2023-12-14T19:57:10;3.20;;;2.50;;
26780;SDS011;14366;49.184;8.054;2023-12-14T20:02:45;3.30;;;2.80;;
26780;SDS011;14366;49.184;8.054;2023-12-14T20:08:06;2.50;;;2.10;;
26780;SDS011;14366;49.184;8.054;2023-12-14T20:13:43;2.93;;;2.40;;
26780;SDS011;14366;49.184;8.054;2023-12-14T20:19:15;2.70;;;2.50;;
26780;SDS011;14366;49.184;8.054;2023-12-14T20:24:35;3.30;;;2.50;;
26780;SDS011;14366;49.184;8.054;2023-12-14T20:30:11;3.65;;;2.60;;
26780;SDS011;14366;49.184;8.054;2023-12-14T20:35:47;3.70;;;2.70;;
26780;SDS011;14366;49.184;8.054;2023-12-14T20:41:22;2.60;;;2.30;;
26780;SDS011;14366;49.184;8.054;2023-12-14T20:46:58;3.40;;;2.80;;
26780;SDS011;14366;49.184;8.054;2023-12-14T20:52:33;3.93;;;3.13;;
26780;SDS011;14366;49.184;8.054;2023-12-14T20:58:08;4.90;;;3.77;;
26780;SDS011;14366;49.184;8.054;2023-12-14T21:03:44;3.90;;;3.30;;
26780;SDS011;14366;49.184;8.054;2023-12-14T21:14:20;5.55;;;3.55;;
26780;SDS011;14366;49.184;8.054;2023-12-14T21:25:00;3.77;;;3.10;;
26780;SDS011;14366;49.184;8.054;2023-12-14T21:35:40;3.47;;;3.10;;
26780;SDS011;14366;49.184;8.054;2023-12-14T21:41:01;5.35;;;3.05;;
26780;SDS011;14366;49.184;8.054;2023-12-14T21:46:34;2.95;;;2.60;;
26780;SDS011;14366;49.184;8.054;2023-12-14T21:51:55;3.25;;;2.95;;
26780;SDS011;14366;49.184;8.054;2023-12-14T21:57:16;3.03;;;2.73;;
26780;SDS011;14366;49.184;8.054;2023-12-14T22:02:51;4.40;;;2.90;;
26780;SDS011;14366;49.184;8.054;2023-12-14T22:08:12;3.67;;;2.90;;
26780;SDS011;14366;49.184;8.054;2023-12-14T22:13:34;3.73;;;3.20;;
26780;SDS011;14366;49.184;8.054;2023-12-14T22:19:07;3.60;;;2.80;;
26780;SDS011;14366;49.184;8.054;2023-12-14T22:24:39;3.77;;;2.90;;
26780;SDS011;14366;49.184;8.054;2023-12-14T22:30:15;4.35;;;3.10;;
26780;SDS011;14366;49.184;8.054;2023-12-14T22:35:50;4.00;;;3.00;;
26780;SDS011;14366;49.184;8.054;2023-12-14T22:41:25;7.43;;;4.10;;
26780;SDS011;14366;49.184;8.054;2023-12-14T22:47:01;4.65;;;3.45;;
26780;SDS011;14366;49.184;8.054;2023-12-14T22:52:36;4.20;;;3.17;;
26780;SDS011;14366;49.184;8.054;2023-12-14T22:57:57;4.35;;;3.55;;
26780;SDS011;14366;49.184;8.054;2023-12-14T23:03:19;5.25;;;3.30;;
26780;SDS011;14366;49.184;8.054;2023-12-14T23:13:58;4.17;;;3.17;;
26780;SDS011;14366;49.184;8.054;2023-12-14T23:19:30;5.30;;;2.93;;
26780;SDS011;14366;49.184;8.054;2023-12-14T23:25:05;3.20;;;2.80;;
26780;SDS011;14366;49.184;8.054;2023-12-14T23:35:46;4.10;;;3.13;;
26780;SDS011;14366;49.184;8.054;2023-12-14T23:46:25;3.30;;;3.00;;
26780;SDS011;14366;49.184;8.054;2023-12-14T23:51:44;3.30;;;2.60;;
26780;SDS011;14366;49.184;8.054;2023-12-14T23:57:16;2.87;;;2.57;;
